sensor_id;sensor_type;location;lat;lon;timestamp;P1;durP1;ratioP1;P2;durP2;ratioP2
6739;SDS011;3407;49.882;10.920;2023-08-17T00:01:02;2.90;;;2.20;;
6739;SDS011;3407;49.882;10.920;2023-08-17T00:05:58;2.80;;;2.60;;
6739;SDS011;3407;49.882;10.920;2023-08-17T00:10:53;2.60;;;2.40;;
6739;SDS011;3407;49.882;10.920;2023-08-17T00:15:49;3.80;;;2.47;;
6739;SDS011;3407;49.882;10.920;2023-08-17T00:20:45;3.77;;;2.40;;
6739;SDS011;3407;49.882;10.920;2023-08-17T00:25:40;2.53;;;2.00;;
6739;SDS011;3407;49.882;10.920;2023-08-17T00:30:36;5.83;;;2.13;;
6739;SDS011;3407;49.882;10.920;2023-08-17T00:35:32;2.80;;;2.20;;
6739;SDS011;3407;49.882;10.920;2023-08-17T00:40:28;8.93;;;2.27;;
6739;SDS011;3407;49.882;10.920;2023-08-17T00:45:23;2.37;;;1.87;;
6739;SDS011;3407;49.882;10.920;2023-08-17T00:50:19;4.57;;;2.20;;
6739;SDS011;3407;49.882;10.920;2023-08-17T00:55:14;2.70;;;1.93;;
6739;SDS011;3407;49.882;10.920;2023-08-17T01:00:11;1.70;;;1.60;;
6739;SDS011;3407;49.882;10.920;2023-08-17T01:05:08;1.40;;;1.30;;
6739;SDS011;3407;49.882;10.920;2023-08-17T01:10:04;2.50;;;1.23;;
6739;SDS011;3407;49.882;10.920;2023-08-17T01:15:13;1.17;;;1.03;;
6739;SDS011;3407;49.882;10.920;2023-08-17T01:20:11;1.40;;;1.00;;
6739;SDS011;3407;49.882;10.920;2023-08-17T01:25:09;0.80;;;0.80;;
6739;SDS011;3407;49.882;10.920;2023-08-17T01:30:04;0.80;;;0.80;;
6739;SDS011;3407;49.882;10.920;2023-08-17T01:35:04;0.90;;;0.90;;
6739;SDS011;3407;49.882;10.920;2023-08-17T01:40:15;0.77;;;0.77;;
6739;SDS011;3407;49.882;10.920;2023-08-17T01:45:12;1.33;;;1.23;;
6739;SDS011;3407;49.882;10.920;2023-08-17T01:50:08;0.73;;;0.73;;
6739;SDS011;3407;49.882;10.920;2023-08-17T01:55:04;0.90;;;0.90;;
6739;SDS011;3407;49.882;10.920;2023-08-17T02:00:00;0.80;;;0.80;;
6739;SDS011;3407;49.882;10.920;2023-08-17T02:04:55;0.73;;;0.70;;
6739;SDS011;3407;49.882;10.920;2023-08-17T02:09:51;0.70;;;0.70;;
6739;SDS011;3407;49.882;10.920;2023-08-17T02:14:46;0.90;;;0.90;;
6739;SDS011;3407;49.882;10.920;2023-08-17T02:19:42;1.27;;;0.93;;
6739;SDS011;3407;49.882;10.920;2023-08-17T02:24:38;2.10;;;1.00;;
6739;SDS011;3407;49.882;10.920;2023-08-17T02:29:33;0.60;;;0.60;;
6739;SDS011;3407;49.882;10.920;2023-08-17T02:34:29;1.00;;;1.00;;
6739;SDS011;3407;49.882;10.920;2023-08-17T02:39:25;0.77;;;0.77;;
6739;SDS011;3407;49.882;10.920;2023-08-17T02:44:21;1.30;;;1.30;;
6739;SDS011;3407;49.882;10.920;2023-08-17T02:49:17;1.13;;;1.10;;
6739;SDS011;3407;49.882;10.920;2023-08-17T02:54:12;1.83;;;1.40;;
6739;SDS011;3407;49.882;10.920;2023-08-17T02:59:08;1.50;;;1.17;;
6739;SDS011;3407;49.882;10.920;2023-08-17T03:04:03;2.17;;;1.00;;
6739;SDS011;3407;49.882;10.920;2023-08-17T03:08:59;1.63;;;1.20;;
6739;SDS011;3407;49.882;10.920;2023-08-17T03:13:54;0.90;;;0.90;;
6739;SDS011;3407;49.882;10.920;2023-08-17T03:18:54;1.20;;;1.10;;
6739;SDS011;3407;49.882;10.920;2023-08-17T03:23:50;0.90;;;0.90;;
6739;SDS011;3407;49.882;10.920;2023-08-17T03:28:47;0.90;;;0.90;;
6739;SDS011;3407;49.882;10.920;2023-08-17T03:33:42;1.30;;;1.30;;
6739;SDS011;3407;49.882;10.920;2023-08-17T03:38:38;0.80;;;0.80;;
6739;SDS011;3407;49.882;10.920;2023-08-17T03:43:34;2.30;;;1.47;;
6739;SDS011;3407;49.882;10.920;2023-08-17T03:48:29;1.03;;;1.03;;
6739;SDS011;3407;49.882;10.920;2023-08-17T03:53:25;0.70;;;0.70;;
6739;SDS011;3407;49.882;10.920;2023-08-17T03:58:20;1.63;;;1.10;;
6739;SDS011;3407;49.882;10.920;2023-08-17T04:03:16;1.13;;;1.03;;
6739;SDS011;3407;49.882;10.920;2023-08-17T04:08:12;1.13;;;1.03;;
6739;SDS011;3407;49.882;10.920;2023-08-17T04:13:07;3.23;;;1.33;;
6739;SDS011;3407;49.882;10.920;2023-08-17T04:18:03;1.07;;;1.07;;
6739;SDS011;3407;49.882;10.920;2023-08-17T04:22:59;0.90;;;0.90;;
6739;SDS011;3407;49.882;10.920;2023-08-17T04:27:54;2.77;;;1.10;;
6739;SDS011;3407;49.882;10.920;2023-08-17T04:32:50;1.03;;;1.03;;
6739;SDS011;3407;49.882;10.920;2023-08-17T04:37:47;1.63;;;1.10;;
6739;SDS011;3407;49.882;10.920;2023-08-17T04:42:42;1.10;;;1.10;;
6739;SDS011;3407;49.882;10.920;2023-08-17T04:47:39;0.93;;;0.93;;
6739;SDS011;3407;49.882;10.920;2023-08-17T04:52:34;1.50;;;1.30;;
6739;SDS011;3407;49.882;10.920;2023-08-17T04:57:30;0.93;;;0.93;;
6739;SDS011;3407;49.882;10.920;2023-08-17T05:02:25;1.50;;;1.37;;
6739;SDS011;3407;49.882;10.920;2023-08-17T05:07:21;1.00;;;1.00;;
6739;SDS011;3407;49.882;10.920;2023-08-17T05:12:16;0.87;;;0.87;;
6739;SDS011;3407;49.882;10.920;2023-08-17T05:17:12;1.10;;;1.00;;
6739;SDS011;3407;49.882;10.920;2023-08-17T05:22:11;1.27;;;1.17;;
6739;SDS011;3407;49.882;10.920;2023-08-17T05:27:08;1.20;;;1.10;;
6739;SDS011;3407;49.882;10.920;2023-08-17T05:32:03;1.17;;;1.10;;
6739;SDS011;3407;49.882;10.920;2023-08-17T05:36:59;1.57;;;1.47;;
6739;SDS011;3407;49.882;10.920;2023-08-17T05:41:55;1.40;;;1.30;;
6739;SDS011;3407;49.882;10.920;2023-08-17T05:46:50;1.20;;;1.07;;
6739;SDS011;3407;49.882;10.920;2023-08-17T05:51:46;1.70;;;1.60;;
6739;SDS011;3407;49.882;10.920;2023-08-17T05:56:41;1.20;;;1.10;;
6739;SDS011;3407;49.882;10.920;2023-08-17T06:01:41;2.37;;;1.57;;
6739;SDS011;3407;49.882;10.920;2023-08-17T06:06:36;1.50;;;1.40;;
6739;SDS011;3407;49.882;10.920;2023-08-17T06:11:32;2.87;;;1.47;;
6739;SDS011;3407;49.882;10.920;2023-08-17T06:16:27;1.73;;;1.30;;
6739;SDS011;3407;49.882;10.920;2023-08-17T06:21:23;1.47;;;1.37;;
6739;SDS011;3407;49.882;10.920;2023-08-17T06:26:18;1.67;;;1.53;;
6739;SDS011;3407;49.882;10.920;2023-08-17T06:31:14;1.60;;;1.40;;
6739;SDS011;3407;49.882;10.920;2023-08-17T06:36:10;7.63;;;2.83;;
6739;SDS011;3407;49.882;10.920;2023-08-17T06:41:08;3.27;;;1.93;;
6739;SDS011;3407;49.882;10.920;2023-08-17T06:46:03;3.93;;;3.60;;
6739;SDS011;3407;49.882;10.920;2023-08-17T06:50:59;2.00;;;1.80;;
6739;SDS011;3407;49.882;10.920;2023-08-17T06:55:55;7.25;;;3.50;;
6739;SDS011;3407;49.882;10.920;2023-08-17T07:00:50;3.47;;;2.28;;
6739;SDS011;3407;49.882;10.920;2023-08-17T07:05:46;1.85;;;1.73;;
6739;SDS011;3407;49.882;10.920;2023-08-17T07:10:41;1.52;;;1.42;;
6739;SDS011;3407;49.882;10.920;2023-08-17T07:15:37;2.90;;;2.43;;
6739;SDS011;3407;49.882;10.920;2023-08-17T07:20:32;1.87;;;1.60;;
6739;SDS011;3407;49.882;10.920;2023-08-17T07:25:28;1.47;;;1.37;;
6739;SDS011;3407;49.882;10.920;2023-08-17T07:30:23;1.80;;;1.70;;
6739;SDS011;3407;49.882;10.920;2023-08-17T07:35:19;1.97;;;1.83;;
6739;SDS011;3407;49.882;10.920;2023-08-17T07:40:14;2.20;;;2.10;;
6739;SDS011;3407;49.882;10.920;2023-08-17T07:45:10;2.43;;;2.23;;
6739;SDS011;3407;49.882;10.920;2023-08-17T07:50:06;2.40;;;2.20;;
6739;SDS011;3407;49.882;10.920;2023-08-17T07:55:02;2.73;;;2.53;;
6739;SDS011;3407;49.882;10.920;2023-08-17T07:59:58;3.10;;;2.73;;
6739;SDS011;3407;49.882;10.920;2023-08-17T08:04:54;2.27;;;2.17;;
6739;SDS011;3407;49.882;10.920;2023-08-17T08:09:49;2.90;;;2.60;;
6739;SDS011;3407;49.882;10.920;2023-08-17T08:14:45;2.70;;;2.50;;
6739;SDS011;3407;49.882;10.920;2023-08-17T08:19:40;3.00;;;2.80;;
6739;SDS011;3407;49.882;10.920;2023-08-17T08:24:36;2.60;;;2.40;;
6739;SDS011;3407;49.882;10.920;2023-08-17T08:29:32;3.43;;;3.10;;
6739;SDS011;3407;49.882;10.920;2023-08-17T08:34:28;2.87;;;2.67;;
6739;SDS011;3407;49.882;10.920;2023-08-17T08:39:26;3.10;;;2.53;;
6739;SDS011;3407;49.882;10.920;2023-08-17T08:44:22;2.57;;;2.37;;
6739;SDS011;3407;49.882;10.920;2023-08-17T08:49:19;3.67;;;2.97;;
6739;SDS011;3407;49.882;10.920;2023-08-17T08:54:25;2.70;;;2.50;;
6739;SDS011;3407;49.882;10.920;2023-08-17T08:59:21;2.78;;;2.58;;
6739;SDS011;3407;49.882;10.920;2023-08-17T09:04:19;2.83;;;2.63;;
6739;SDS011;3407;49.882;10.920;2023-08-17T09:09:15;4.22;;;2.55;;
6739;SDS011;3407;49.882;10.920;2023-08-17T09:14:12;2.53;;;2.33;;
6739;SDS011;3407;49.882;10.920;2023-08-17T09:19:07;3.78;;;3.05;;
6739;SDS011;3407;49.882;10.920;2023-08-17T09:24:03;3.00;;;2.78;;
6739;SDS011;3407;49.882;10.920;2023-08-17T09:28:59;3.55;;;2.72;;
6739;SDS011;3407;49.882;10.920;2023-08-17T09:33:55;4.38;;;2.50;;
6739;SDS011;3407;49.882;10.920;2023-08-17T09:38:51;2.63;;;2.42;;
6739;SDS011;3407;49.882;10.920;2023-08-17T09:43:47;2.90;;;2.53;;
6739;SDS011;3407;49.882;10.920;2023-08-17T09:48:43;2.90;;;2.33;;
6739;SDS011;3407;49.882;10.920;2023-08-17T09:53:40;2.80;;;2.60;;
6739;SDS011;3407;49.882;10.920;2023-08-17T09:58:36;3.20;;;2.90;;
6739;SDS011;3407;49.882;10.920;2023-08-17T10:03:33;3.33;;;2.67;;
6739;SDS011;3407;49.882;10.920;2023-08-17T10:08:30;3.13;;;2.10;;
6739;SDS011;3407;49.882;10.920;2023-08-17T10:13:30;3.22;;;2.92;;
6739;SDS011;3407;49.882;10.920;2023-08-17T10:23:25;4.95;;;2.45;;
6739;SDS011;3407;49.882;10.920;2023-08-17T10:28:22;2.45;;;2.25;;
6739;SDS011;3407;49.882;10.920;2023-08-17T10:33:19;2.50;;;2.30;;
6739;SDS011;3407;49.882;10.920;2023-08-17T10:38:15;2.78;;;2.58;;
6739;SDS011;3407;49.882;10.920;2023-08-17T10:43:11;2.22;;;2.13;;
6739;SDS011;3407;49.882;10.920;2023-08-17T10:53:12;2.30;;;2.20;;
6739;SDS011;3407;49.882;10.920;2023-08-17T10:58:10;2.60;;;2.10;;
6739;SDS011;3407;49.882;10.920;2023-08-17T11:03:07;1.85;;;1.75;;
6739;SDS011;3407;49.882;10.920;2023-08-17T11:08:05;2.15;;;1.95;;
6739;SDS011;3407;49.882;10.920;2023-08-17T11:13:02;1.90;;;1.80;;
6739;SDS011;3407;49.882;10.920;2023-08-17T11:17:57;2.08;;;1.98;;
6739;SDS011;3407;49.882;10.920;2023-08-17T11:22:53;2.30;;;2.20;;
6739;SDS011;3407;49.882;10.920;2023-08-17T11:27:48;3.13;;;1.80;;
6739;SDS011;3407;49.882;10.920;2023-08-17T11:32:45;2.20;;;1.92;;
6739;SDS011;3407;49.882;10.920;2023-08-17T11:37:40;2.10;;;2.00;;
6739;SDS011;3407;49.882;10.920;2023-08-17T11:42:36;2.22;;;2.13;;
6739;SDS011;3407;49.882;10.920;2023-08-17T11:47:32;2.25;;;2.15;;
6739;SDS011;3407;49.882;10.920;2023-08-17T11:52:28;2.40;;;2.20;;
6739;SDS011;3407;49.882;10.920;2023-08-17T11:57:24;2.72;;;2.45;;
6739;SDS011;3407;49.882;10.920;2023-08-17T12:02:20;2.15;;;1.95;;
6739;SDS011;3407;49.882;10.920;2023-08-17T12:07:17;2.08;;;1.98;;
6739;SDS011;3407;49.882;10.920;2023-08-17T12:12:17;2.25;;;2.15;;
6739;SDS011;3407;49.882;10.920;2023-08-17T12:17:16;2.25;;;2.15;;
6739;SDS011;3407;49.882;10.920;2023-08-17T12:22:13;2.47;;;2.30;;
6739;SDS011;3407;49.882;10.920;2023-08-17T12:27:09;3.05;;;2.75;;
6739;SDS011;3407;49.882;10.920;2023-08-17T12:32:05;3.35;;;2.55;;
6739;SDS011;3407;49.882;10.920;2023-08-17T12:37:02;2.47;;;2.30;;
6739;SDS011;3407;49.882;10.920;2023-08-17T12:41:57;2.75;;;2.55;;
6739;SDS011;3407;49.882;10.920;2023-08-17T12:46:53;2.35;;;2.15;;
6739;SDS011;3407;49.882;10.920;2023-08-17T12:51:48;2.40;;;2.30;;
6739;SDS011;3407;49.882;10.920;2023-08-17T12:56:44;2.20;;;2.10;;
6739;SDS011;3407;49.882;10.920;2023-08-17T13:01:40;2.78;;;2.58;;
6739;SDS011;3407;49.882;10.920;2023-08-17T13:06:37;2.75;;;2.55;;
6739;SDS011;3407;49.882;10.920;2023-08-17T13:11:33;2.13;;;2.03;;
6739;SDS011;3407;49.882;10.920;2023-08-17T13:16:28;2.72;;;2.35;;
6739;SDS011;3407;49.882;10.920;2023-08-17T13:21:24;2.40;;;2.25;;
6739;SDS011;3407;49.882;10.920;2023-08-17T13:26:20;3.50;;;3.20;;
6739;SDS011;3407;49.882;10.920;2023-08-17T13:31:19;3.13;;;2.83;;
6739;SDS011;3407;49.882;10.920;2023-08-17T13:36:14;3.10;;;2.58;;
6739;SDS011;3407;49.882;10.920;2023-08-17T13:41:10;2.63;;;2.40;;
6739;SDS011;3407;49.882;10.920;2023-08-17T13:46:07;2.88;;;2.50;;
6739;SDS011;3407;49.882;10.920;2023-08-17T13:51:02;3.08;;;2.88;;
6739;SDS011;3407;49.882;10.920;2023-08-17T13:55:58;2.97;;;2.30;;
6739;SDS011;3407;49.882;10.920;2023-08-17T14:00:53;2.88;;;2.58;;
6739;SDS011;3407;49.882;10.920;2023-08-17T14:05:49;3.47;;;2.83;;
6739;SDS011;3407;49.882;10.920;2023-08-17T14:10:44;4.38;;;3.17;;
6739;SDS011;3407;49.882;10.920;2023-08-17T14:15:40;4.03;;;3.60;;
6739;SDS011;3407;49.882;10.920;2023-08-17T14:20:35;2.78;;;2.58;;
6739;SDS011;3407;49.882;10.920;2023-08-17T14:25:31;3.38;;;3.08;;
6739;SDS011;3407;49.882;10.920;2023-08-17T14:30:26;3.08;;;2.88;;
6739;SDS011;3407;49.882;10.920;2023-08-17T14:35:22;3.75;;;3.45;;
6739;SDS011;3407;49.882;10.920;2023-08-17T14:40:18;3.03;;;2.83;;
6739;SDS011;3407;49.882;10.920;2023-08-17T14:45:13;3.17;;;2.90;;
6739;SDS011;3407;49.882;10.920;2023-08-17T14:50:09;3.23;;;2.97;;
6739;SDS011;3407;49.882;10.920;2023-08-17T14:55:04;3.47;;;3.17;;
6739;SDS011;3407;49.882;10.920;2023-08-17T15:00:00;4.00;;;2.77;;
6739;SDS011;3407;49.882;10.920;2023-08-17T15:04:56;3.37;;;2.97;;
6739;SDS011;3407;49.882;10.920;2023-08-17T15:09:51;5.27;;;4.00;;
6739;SDS011;3407;49.882;10.920;2023-08-17T15:14:47;4.20;;;3.80;;
6739;SDS011;3407;49.882;10.920;2023-08-17T15:19:43;3.13;;;2.83;;
6739;SDS011;3407;49.882;10.920;2023-08-17T15:24:38;3.37;;;3.10;;
6739;SDS011;3407;49.882;10.920;2023-08-17T15:29:34;5.77;;;3.97;;
6739;SDS011;3407;49.882;10.920;2023-08-17T15:34:30;4.30;;;3.90;;
6739;SDS011;3407;49.882;10.920;2023-08-17T15:39:25;4.17;;;3.37;;
6739;SDS011;3407;49.882;10.920;2023-08-17T15:44:21;3.37;;;2.87;;
6739;SDS011;3407;49.882;10.920;2023-08-17T15:49:16;3.67;;;3.10;;
6739;SDS011;3407;49.882;10.920;2023-08-17T15:54:12;4.47;;;3.20;;
6739;SDS011;3407;49.882;10.920;2023-08-17T15:59:08;4.37;;;3.60;;
6739;SDS011;3407;49.882;10.920;2023-08-17T16:04:03;3.20;;;2.90;;
6739;SDS011;3407;49.882;10.920;2023-08-17T16:08:59;7.47;;;4.97;;
6739;SDS011;3407;49.882;10.920;2023-08-17T16:13:55;2.63;;;2.30;;
6739;SDS011;3407;49.882;10.920;2023-08-17T16:18:51;2.83;;;2.30;;
6739;SDS011;3407;49.882;10.920;2023-08-17T16:23:47;2.47;;;2.27;;
6739;SDS011;3407;49.882;10.920;2023-08-17T16:28:42;4.20;;;2.47;;
6739;SDS011;3407;49.882;10.920;2023-08-17T16:33:38;2.87;;;2.30;;
6739;SDS011;3407;49.882;10.920;2023-08-17T16:38:35;2.57;;;2.37;;
6739;SDS011;3407;49.882;10.920;2023-08-17T16:43:31;2.20;;;2.00;;
6739;SDS011;3407;49.882;10.920;2023-08-17T16:48:26;3.03;;;2.30;;
6739;SDS011;3407;49.882;10.920;2023-08-17T16:53:22;2.73;;;2.33;;
6739;SDS011;3407;49.882;10.920;2023-08-17T16:58:18;4.40;;;2.30;;
6739;SDS011;3407;49.882;10.920;2023-08-17T17:03:13;2.90;;;2.13;;
6739;SDS011;3407;49.882;10.920;2023-08-17T17:08:09;3.60;;;2.80;;
6739;SDS011;3407;49.882;10.920;2023-08-17T17:13:04;1.80;;;1.70;;
6739;SDS011;3407;49.882;10.920;2023-08-17T17:18:00;3.23;;;2.53;;
6739;SDS011;3407;49.882;10.920;2023-08-17T17:22:55;2.30;;;2.10;;
6739;SDS011;3407;49.882;10.920;2023-08-17T17:27:51;2.53;;;2.27;;
6739;SDS011;3407;49.882;10.920;2023-08-17T17:32:47;3.30;;;2.43;;
6739;SDS011;3407;49.882;10.920;2023-08-17T17:37:42;2.37;;;1.70;;
6739;SDS011;3407;49.882;10.920;2023-08-17T17:42:38;3.27;;;2.83;;
6739;SDS011;3407;49.882;10.920;2023-08-17T17:47:33;2.60;;;2.40;;
6739;SDS011;3407;49.882;10.920;2023-08-17T17:52:32;4.37;;;2.70;;
6739;SDS011;3407;49.882;10.920;2023-08-17T17:57:27;3.00;;;2.57;;
6739;SDS011;3407;49.882;10.920;2023-08-17T18:02:24;3.10;;;2.53;;
6739;SDS011;3407;49.882;10.920;2023-08-17T18:07:21;3.40;;;2.57;;
6739;SDS011;3407;49.882;10.920;2023-08-17T18:12:16;2.37;;;2.10;;
6739;SDS011;3407;49.882;10.920;2023-08-17T18:17:12;2.07;;;1.90;;
6739;SDS011;3407;49.882;10.920;2023-08-17T18:22:08;3.37;;;2.07;;
6739;SDS011;3407;49.882;10.920;2023-08-17T18:27:03;2.77;;;2.43;;
6739;SDS011;3407;49.882;10.920;2023-08-17T18:31:59;2.40;;;2.17;;
6739;SDS011;3407;49.882;10.920;2023-08-17T18:36:54;2.13;;;1.93;;
6739;SDS011;3407;49.882;10.920;2023-08-17T18:41:50;4.70;;;2.90;;
6739;SDS011;3407;49.882;10.920;2023-08-17T18:46:46;1.77;;;1.67;;
6739;SDS011;3407;49.882;10.920;2023-08-17T18:51:41;1.33;;;1.23;;
6739;SDS011;3407;49.882;10.920;2023-08-17T18:56:37;1.13;;;1.03;;
6739;SDS011;3407;49.882;10.920;2023-08-17T19:01:32;3.10;;;2.00;;
6739;SDS011;3407;49.882;10.920;2023-08-17T19:06:28;1.37;;;1.27;;
6739;SDS011;3407;49.882;10.920;2023-08-17T19:11:23;3.23;;;2.23;;
6739;SDS011;3407;49.882;10.920;2023-08-17T19:16:19;1.10;;;1.10;;
6739;SDS011;3407;49.882;10.920;2023-08-17T19:21:14;1.30;;;1.20;;
6739;SDS011;3407;49.882;10.920;2023-08-17T19:26:10;1.33;;;1.23;;
6739;SDS011;3407;49.882;10.920;2023-08-17T19:31:05;0.97;;;0.97;;
6739;SDS011;3407;49.882;10.920;2023-08-17T19:36:01;1.37;;;1.30;;
6739;SDS011;3407;49.882;10.920;2023-08-17T19:40:57;1.40;;;1.30;;
6739;SDS011;3407;49.882;10.920;2023-08-17T19:45:52;1.50;;;1.40;;
6739;SDS011;3407;49.882;10.920;2023-08-17T19:50:48;1.20;;;1.10;;
6739;SDS011;3407;49.882;10.920;2023-08-17T19:55:43;1.60;;;1.50;;
6739;SDS011;3407;49.882;10.920;2023-08-17T20:00:39;1.10;;;1.10;;
6739;SDS011;3407;49.882;10.920;2023-08-17T20:05:34;0.90;;;0.90;;
6739;SDS011;3407;49.882;10.920;2023-08-17T20:10:30;2.77;;;1.43;;
6739;SDS011;3407;49.882;10.920;2023-08-17T20:15:26;1.40;;;1.30;;
6739;SDS011;3407;49.882;10.920;2023-08-17T20:20:21;0.90;;;0.90;;
6739;SDS011;3407;49.882;10.920;2023-08-17T20:25:17;1.60;;;1.23;;
6739;SDS011;3407;49.882;10.920;2023-08-17T20:30:12;1.30;;;1.30;;
6739;SDS011;3407;49.882;10.920;2023-08-17T20:35:08;1.03;;;1.03;;
6739;SDS011;3407;49.882;10.920;2023-08-17T20:40:04;2.10;;;1.33;;
6739;SDS011;3407;49.882;10.920;2023-08-17T20:45:00;1.00;;;1.00;;
6739;SDS011;3407;49.882;10.920;2023-08-17T20:49:55;4.60;;;1.80;;
6739;SDS011;3407;49.882;10.920;2023-08-17T20:54:53;1.97;;;1.20;;
6739;SDS011;3407;49.882;10.920;2023-08-17T20:59:48;1.17;;;1.07;;
6739;SDS011;3407;49.882;10.920;2023-08-17T21:04:44;1.80;;;1.20;;
6739;SDS011;3407;49.882;10.920;2023-08-17T21:09:40;1.03;;;0.93;;
6739;SDS011;3407;49.882;10.920;2023-08-17T21:14:35;1.03;;;1.03;;
6739;SDS011;3407;49.882;10.920;2023-08-17T21:19:31;1.47;;;1.37;;
6739;SDS011;3407;49.882;10.920;2023-08-17T21:24:27;1.33;;;1.23;;
6739;SDS011;3407;49.882;10.920;2023-08-17T21:29:22;1.77;;;1.67;;
6739;SDS011;3407;49.882;10.920;2023-08-17T21:34:18;1.43;;;1.30;;
6739;SDS011;3407;49.882;10.920;2023-08-17T21:39:14;1.50;;;1.40;;
6739;SDS011;3407;49.882;10.920;2023-08-17T21:44:10;3.73;;;1.20;;
6739;SDS011;3407;49.882;10.920;2023-08-17T21:49:05;1.93;;;1.70;;
6739;SDS011;3407;49.882;10.920;2023-08-17T21:54:01;2.33;;;1.30;;
6739;SDS011;3407;49.882;10.920;2023-08-17T21:58:57;1.60;;;1.50;;
6739;SDS011;3407;49.882;10.920;2023-08-17T22:03:52;1.10;;;1.10;;
6739;SDS011;3407;49.882;10.920;2023-08-17T22:08:48;1.23;;;1.17;;
6739;SDS011;3407;49.882;10.920;2023-08-17T22:13:43;1.33;;;1.23;;
6739;SDS011;3407;49.882;10.920;2023-08-17T22:18:39;1.33;;;1.33;;
6739;SDS011;3407;49.882;10.920;2023-08-17T22:23:34;1.33;;;1.23;;
6739;SDS011;3407;49.882;10.920;2023-08-17T22:28:30;1.30;;;1.20;;
6739;SDS011;3407;49.882;10.920;2023-08-17T22:33:25;2.07;;;1.80;;
6739;SDS011;3407;49.882;10.920;2023-08-17T22:38:21;1.57;;;1.47;;
6739;SDS011;3407;49.882;10.920;2023-08-17T22:43:16;1.63;;;1.53;;
6739;SDS011;3407;49.882;10.920;2023-08-17T22:48:12;1.10;;;1.10;;
6739;SDS011;3407;49.882;10.920;2023-08-17T22:53:07;1.93;;;1.43;;
6739;SDS011;3407;49.882;10.920;2023-08-17T22:58:03;1.33;;;1.30;;
6739;SDS011;3407;49.882;10.920;2023-08-17T23:02:59;1.50;;;1.40;;
6739;SDS011;3407;49.882;10.920;2023-08-17T23:07:54;1.83;;;1.37;;
6739;SDS011;3407;49.882;10.920;2023-08-17T23:12:50;1.07;;;1.07;;
6739;SDS011;3407;49.882;10.920;2023-08-17T23:17:45;1.17;;;1.10;;
6739;SDS011;3407;49.882;10.920;2023-08-17T23:22:41;1.83;;;1.73;;
6739;SDS011;3407;49.882;10.920;2023-08-17T23:27:36;1.83;;;1.73;;
6739;SDS011;3407;49.882;10.920;2023-08-17T23:32:33;2.33;;;1.40;;
6739;SDS011;3407;49.882;10.920;2023-08-17T23:37:29;1.03;;;1.03;;
6739;SDS011;3407;49.882;10.920;2023-08-17T23:42:24;1.30;;;1.00;;
6739;SDS011;3407;49.882;10.920;2023-08-17T23:47:20;0.93;;;0.93;;
6739;SDS011;3407;49.882;10.920;2023-08-17T23:52:15;1.00;;;0.90;;
6739;SDS011;3407;49.882;10.920;2023-08-17T23:57:11;1.20;;;1.20;;
